Latest Coastal Weather Observations for Cato Island

IDQ60701

Issued at 8:42 am EST Monday 27 April 2015 (issued every 10 minutes, with the page automatically refreshed every 10 minutes)

About coastal observations | Map of coastal stations | Coastal observations for QLD | Marine services | Other Formats
Station Details ID: 200601 Name: CATO ISLAND Lat: -23.25 Lon: 155.54 Height: 6.3 m
Data from the previous 72 hours. | See also: Recent months for locations in Queensland
Date/Time
EST
Temp

°C
Wind Pressure Rain
since 9am
mm
Weather Cloud Vis
km
Sea
Height
m
Swell
Dir
 
Speed
knots
Gust
knots
hPa Trend Height
m
Period
s
Dir
27/08:30am 24.5 SSE 10 14 1015.8 - - - - - - - - -
27/08:00am 24.5 S 10 14 1015.6 - - - - - - - - -
27/07:30am 24.2 SSE 12 17 1015.1 - - - - - - - - -
27/07:00am 24.0 S 8 14 1014.8 - - - - - - - - -
27/06:30am 23.9 S 11 13 1014.4 - - - - - - - - -
27/06:00am 23.7 S 10 12 1014.1 - - - - - - - - -
27/05:30am 23.8 SSE 10 13 1013.8 - - - - - - - - -
27/05:00am 23.7 SSE 12 17 1013.6 - - - - - - - - -
27/04:30am 23.7 S 12 15 1013.3 - - - - - - - - -
27/04:00am 23.8 S 12 16 1013.2 - - - - - - - - -
27/03:30am 23.9 S 14 19 1013.1 - - - - - - - - -
27/03:00am 23.5 S 14 18 1013.3 - - - - - - - - -
27/02:30am 23.8 S 11 14 1013.3 - - - - - - - - -
27/02:00am 23.7 S 14 18 1013.6 - - - - - - - - -
27/01:30am 23.5 S 14 19 1013.7 - - - - - - - - -
27/01:00am 23.6 S 12 18 1013.8 - - - - - - - - -
27/12:30am 23.6 S 14 18 1014.0 - - - - - - - - -
27/12:00am 23.3 SSW 14 17 1014.2 - - - - - - - - -
 
Date/Time
EST
Temp

°C
Wind Pressure Rain
since 9am
mm
Weather Cloud Vis
km
Sea
Height
m
Swell
Dir
 
Speed
knots
Gust
knots
hPa Trend Height
m
Period
s
Dir
26/11:30pm 23.4 S 16 20 1014.4 - - - - - - - - -
26/11:00pm 23.4 SSW 16 19 1014.7 - - - - - - - - -
26/10:30pm 23.7 SSW 19 22 1014.6 - - - - - - - - -
26/10:00pm 23.7 SSW 18 21 1014.6 - - - - - - - - -
26/09:30pm 23.7 SSW 17 21 1014.7 - - - - - - - - -
26/09:00pm 23.6 SSW 17 20 1014.4 - - - - - - - - -
26/08:30pm 23.7 SSW 16 20 1014.2 - - - - - - - - -
26/08:00pm 23.9 SSW 16 19 1013.8 - - - - - - - - -
26/07:30pm 24.0 SSW 15 18 1013.5 - - - - - - - - -
26/07:00pm 24.2 SSW 13 17 1013.0 - - - - - - - - -
26/06:30pm 24.3 SSW 14 17 1012.6 - - - - - - - - -
26/06:00pm 24.3 SSW 12 15 1012.3 - - - - - - - - -
26/05:30pm 24.3 SSW 16 19 1011.9 - - - - - - - - -
26/05:00pm 24.6 SSW 15 17 1011.7 - - - - - - - - -
26/04:30pm 24.9 SSW 15 19 1011.4 - - - - - - - - -
26/04:00pm 25.2 SSW 15 18 1011.2 - - - - - - - - -
26/03:30pm 25.7 SSW 14 16 1010.9 - - - - - - - - -
26/03:00pm 25.9 SSW 15 17 1010.7 - - - - - - - - -
26/02:30pm 26.2 SSW 15 18 1010.5 - - - - - - - - -
26/02:00pm 26.7 SW 16 18 1010.4 - - - - - - - - -
26/01:30pm 26.8 SSW 17 19 1010.3 - - - - - - - - -
26/01:00pm 26.9 SW 17 19 1010.4 - - - - - - - - -
26/12:30pm 27.2 SW 16 18 1010.5 - - - - - - - - -
26/12:00pm 27.5 SW 15 17 1010.7 - - - - - - - - -
26/11:30am 27.6 W 13 15 1011.0 - - - - - - - - -
26/11:00am 27.5 WSW 12 14 1011.3 - - - - - - - - -
26/10:30am 27.4 W 11 15 1011.8 - - - - - - - - -
26/10:00am 26.8 W 12 15 1012.0 - - - - - - - - -
26/09:30am 26.8 W 12 15 1012.2 - - - - - - - - -
26/09:00am 26.5 W 11 14 1012.3 - - - - - - - - -
26/08:30am 26.3 W 12 15 1012.3 - - - - - - - - -
26/08:00am 25.5 W 12 14 1012.2 - - - - - - - - -
26/07:30am 24.9 WSW 10 13 1011.8 - - - - - - - - -
26/07:00am 24.1 W 8 11 1011.3 - - - - - - - - -
26/06:30am 23.2 W 8 10 1010.9 - - - - - - - - -
26/06:00am 22.3 WSW 7 8 1010.6 - - - - - - - - -
26/05:30am 22.2 WSW 7 8 1010.3 - - - - - - - - -
26/05:00am 22.5 WSW 8 10 1010.1 - - - - - - - - -
26/04:30am 22.4 WSW 8 9 1009.9 - - - - - - - - -
26/04:00am 22.4 WSW 7 8 1009.7 - - - - - - - - -
26/03:30am 22.8 WSW 6 7 1009.7 - - - - - - - - -
26/03:00am 22.4 WSW 8 9 1009.7 - - - - - - - - -
26/02:30am 22.5 WSW 6 7 1009.7 - - - - - - - - -
26/02:00am 22.9 WSW 5 7 1009.8 - - - - - - - - -
26/01:30am 23.1 SW 6 8 1010.0 - - - - - - - - -
26/01:00am 23.4 SSW 7 9 1010.3 - - - - - - - - -
26/12:30am 23.0 SW 6 7 1010.5 - - - - - - - - -
26/12:00am 24.0 S 6 7 1010.6 - - - - - - - - -
 
Date/Time
EST
Temp

°C
Wind Pressure Rain
since 9am
mm
Weather Cloud Vis
km
Sea
Height
m
Swell
Dir
 
Speed
knots
Gust
knots
hPa Trend Height
m
Period
s
Dir
25/11:30pm 23.7 SSW 5 8 1010.9 - - - - - - - - -
25/11:00pm 23.9 S 5 7 1011.2 - - - - - - - - -
25/10:30pm 23.8 S 6 7 1011.1 - - - - - - - - -
25/10:00pm 24.0 S 6 7 1011.1 - - - - - - - - -
25/09:30pm 24.5 SSE 6 7 1011.2 - - - - - - - - -
25/09:00pm 24.4 SSE 7 9 1011.1 - - - - - - - - -
25/08:30pm 24.5 S 7 8 1011.2 - - - - - - - - -
25/08:00pm 24.4 S 6 7 1011.0 - - - - - - - - -
25/07:30pm 24.6 SSE 6 8 1010.7 - - - - - - - - -
25/07:00pm 24.5 S 7 9 1010.3 - - - - - - - - -
25/06:30pm 24.6 S 8 9 1010.0 - - - - - - - - -
25/06:00pm 24.7 S 8 10 1009.7 - - - - - - - - -
25/05:30pm 24.7 S 8 10 1009.3 - - - - - - - - -
25/05:00pm 24.7 SSE 9 11 1009.1 - - - - - - - - -
25/04:30pm 24.9 S 9 11 1008.8 - - - - - - - - -
25/04:00pm 25.0 SSE 11 14 1008.5 - - - - - - - - -
25/03:30pm 25.1 SSE 11 13 1008.4 - - - - - - - - -
25/03:00pm 25.1 SSE 11 13 1008.5 - - - - - - - - -
25/02:30pm 25.2 SSE 11 13 1008.4 - - - - - - - - -
25/02:00pm 25.3 SSE 11 13 1008.6 - - - - - - - - -
25/01:30pm 25.2 SSE 11 13 1008.8 - - - - - - - - -
25/01:00pm 25.2 S 11 13 1009.0 - - - - - - - - -
25/12:30pm 25.2 S 12 14 1009.3 - - - - - - - - -
25/12:00pm 25.2 S 10 13 1009.8 - - - - - - - - -
25/11:30am 25.6 S 11 13 1010.0 - - - - - - - - -
25/11:00am 25.4 S 11 13 1010.4 - - - - - - - - -
25/10:30am 25.3 S 10 12 1010.7 - - - - - - - - -
25/10:00am 25.1 S 10 13 1010.8 - - - - - - - - -
25/09:30am 25.2 S 10 14 1011.0 - - - - - - - - -
25/09:00am 25.1 S 10 13 1011.1 - - - - - - - - -
25/08:30am 25.1 S 10 12 1011.0 - - - - - - - - -
25/08:00am 24.9 S 9 11 1010.8 - - - - - - - - -
25/07:30am 24.8 S 10 11 1010.6 - - - - - - - - -
25/07:00am 24.5 S 10 13 1010.4 - - - - - - - - -
25/06:30am 24.2 SSW 9 11 1010.0 - - - - - - - - -
25/06:00am 24.0 S 8 11 1009.7 - - - - - - - - -
25/05:30am 23.8 SSW 8 10 1009.5 - - - - - - - - -
25/05:00am 23.8 CALM 0 3 1009.2 - - - - - - - - -
25/04:30am 23.9 S 1 4 1008.9 - - - - - - - - -
25/04:00am 24.0 S 2 9 1008.9 - - - - - - - - -
25/03:30am 24.0 S 8 10 1008.8 - - - - - - - - -
25/03:00am 24.0 S 7 9 1008.8 - - - - - - - - -
25/02:30am 24.0 S 7 9 1008.9 - - - - - - - - -
25/02:00am 24.0 SSW 8 11 1009.4 - - - - - - - - -
25/01:30am 24.0 S 7 9 1009.3 - - - - - - - - -
25/01:00am 24.2 S 7 11 1009.3 - - - - - - - - -
25/12:30am 24.1 S 7 8 1009.5 - - - - - - - - -
25/12:00am 24.0 S 6 8 1009.7 - - - - - - - - -
 
Date/Time
EST
Temp

°C
Wind Pressure Rain
since 9am
mm
Weather Cloud Vis
km
Sea
Height
m
Swell
Dir
 
Speed
knots
Gust
knots
hPa Trend Height
m
Period
s
Dir
24/11:30pm 24.1 S 7 8 1010.0 - - - - - - - - -
24/11:00pm 24.2 S 6 8 1010.1 - - - - - - - - -
24/10:30pm 24.3 SSE 6 7 1010.2 - - - - - - - - -
24/10:00pm 24.4 SSE 6 8 1010.2 - - - - - - - - -
24/09:30pm 24.4 SSE 6 8 1010.3 - - - - - - - - -
24/09:00pm 24.4 SSE 7 8 1010.2 - - - - - - - - -
24/08:30pm 24.4 SSE 7 9 1010.1 - - - - - - - - -
24/08:00pm 24.5 S 8 11 1010.0 - - - - - - - - -
24/07:30pm 24.4 SSE 9 11 1009.9 - - - - - - - - -
24/07:00pm 24.5 SSE 9 11 1009.8 - - - - - - - - -
24/06:30pm 24.4 SSE 7 9 1009.3 - - - - - - - - -
24/06:00pm 24.3 S 7 9 1009.2 - - - - - - - - -
24/05:30pm 24.3 S 8 10 1008.8 - - - - - - - - -
24/05:00pm 24.4 S 9 11 1008.7 - - - - - - - - -
24/04:30pm 24.5 S 10 11 1008.2 - - - - - - - - -
24/04:00pm 24.6 S 10 12 1008.3 - - - - - - - - -
24/03:30pm 24.8 SSW 10 13 1008.3 - - - - - - - - -
24/03:00pm 25.3 SSW 11 13 1008.4 - - - - - - - - -
24/02:30pm 25.0 SSW 10 11 1008.4 - - - - - - - - -
24/02:00pm 25.3 SSW 10 11 1008.5 - - - - - - - - -
24/01:30pm 25.6 SSW 9 11 1008.5 - - - - - - - - -
24/01:00pm 25.9 SSW 11 13 1009.0 - - - - - - - - -
24/12:30pm 26.1 SSW 8 10 1008.9 - - - - - - - - -
24/12:00pm 25.6 SSW 9 11 1009.2 - - - - - - - - -
24/11:30am 25.9 SSW 9 11 1009.6 - - - - - - - - -
24/11:00am 25.8 SSW 9 11 1010.0 - - - - - - - - -
24/10:30am 25.4 S 6 7 1010.2 - - - - - - - - -
24/10:00am 25.5 S 7 9 1010.6 - - - - - - - - -
24/09:30am 25.4 S 8 10 1010.5 - - - - - - - - -
24/09:00am 25.3 S 9 11 1010.4 - - - - - - - - -

Other Formats:

Comma delimited format used in spreadsheet applications
http://www.bom.gov.au/fwo/IDQ60701/IDQ60701.94394.axf

JavaScript Object Notation format (JSON) in row-major order
http://www.bom.gov.au/fwo/IDQ60701/IDQ60701.94394.json